sensor_id;sensor_type;location;lat;lon;timestamp;pressure;altitude;pressure_sealevel;temperature;humidity
37064;BME280;23211;53.912;9.138;2022-10-23T00:01:43;101525.72;;;18.09;56.39
37064;BME280;23211;53.912;9.138;2022-10-23T00:04:29;101527.59;;;18.09;56.40
37064;BME280;23211;53.912;9.138;2022-10-23T00:07:14;101521.94;;;18.05;56.72
37064;BME280;23211;53.912;9.138;2022-10-23T00:10:00;101523.84;;;18.04;56.66
37064;BME280;23211;53.912;9.138;2022-10-23T00:12:46;101524.94;;;18.03;56.74
37064;BME280;23211;53.912;9.138;2022-10-23T00:15:34;101529.84;;;18.01;56.85
37064;BME280;23211;53.912;9.138;2022-10-23T00:18:20;101534.44;;;18.01;56.90
37064;BME280;23211;53.912;9.138;2022-10-23T00:21:07;101519.56;;;17.98;56.98
37064;BME280;23211;53.912;9.138;2022-10-23T00:23:53;101524.97;;;17.98;56.90
37064;BME280;23211;53.912;9.138;2022-10-23T00:26:40;101521.75;;;17.96;57.10
37064;BME280;23211;53.912;9.138;2022-10-23T00:29:26;101525.56;;;17.95;57.03
37064;BME280;23211;53.912;9.138;2022-10-23T00:32:13;101533.69;;;17.95;56.93
37064;BME280;23211;53.912;9.138;2022-10-23T00:34:59;101530.16;;;17.95;57.00
37064;BME280;23211;53.912;9.138;2022-10-23T00:37:45;101528.25;;;17.95;56.89
37064;BME280;23211;53.912;9.138;2022-10-23T00:40:31;101533.97;;;17.94;57.06
37064;BME280;23211;53.912;9.138;2022-10-23T00:43:20;101531.53;;;17.92;57.02
37064;BME280;23211;53.912;9.138;2022-10-23T00:46:06;101538.88;;;17.92;57.04
37064;BME280;23211;53.912;9.138;2022-10-23T00:48:52;101532.63;;;17.91;56.95
37064;BME280;23211;53.912;9.138;2022-10-23T00:51:44;101533.19;;;17.88;57.07
37064;BME280;23211;53.912;9.138;2022-10-23T00:54:35;101525.06;;;17.88;57.09
37064;BME280;23211;53.912;9.138;2022-10-23T00:57:21;101526.16;;;17.87;57.16
37064;BME280;23211;53.912;9.138;2022-10-23T01:00:07;101531.06;;;17.85;57.11
37064;BME280;23211;53.912;9.138;2022-10-23T01:02:54;101524.81;;;17.85;57.04
37064;BME280;23211;53.912;9.138;2022-10-23T01:05:51;101529.19;;;17.81;57.08
37064;BME280;23211;53.912;9.138;2022-10-23T01:08:51;101526.19;;;17.82;56.98
37064;BME280;23211;53.912;9.138;2022-10-23T01:11:46;101515.63;;;17.81;56.95
37064;BME280;23211;53.912;9.138;2022-10-23T01:15:18;101510.00;;;17.72;57.01
37064;BME280;23211;53.912;9.138;2022-10-23T01:18:16;101516.50;;;17.76;57.09
37064;BME280;23211;53.912;9.138;2022-10-23T01:21:27;101510.00;;;17.72;57.07
37064;BME280;23211;53.912;9.138;2022-10-23T01:24:33;101510.28;;;17.70;57.00
37064;BME280;23211;53.912;9.138;2022-10-23T01:27:27;101515.16;;;17.74;56.99
37064;BME280;23211;53.912;9.138;2022-10-23T01:30:15;101507.84;;;17.74;56.84
37064;BME280;23211;53.912;9.138;2022-10-23T01:33:14;101510.81;;;17.73;56.85
37064;BME280;23211;53.912;9.138;2022-10-23T01:36:11;101503.78;;;17.71;56.81
37064;BME280;23211;53.912;9.138;2022-10-23T01:39:02;101507.59;;;17.70;56.83
37064;BME280;23211;53.912;9.138;2022-10-23T01:41:54;101505.16;;;17.69;56.99
37064;BME280;23211;53.912;9.138;2022-10-23T01:45:14;101508.16;;;17.62;57.26
37064;BME280;23211;53.912;9.138;2022-10-23T01:48:03;101508.69;;;17.64;57.18
37064;BME280;23211;53.912;9.138;2022-10-23T01:50:54;101513.56;;;17.62;57.16
37064;BME280;23211;53.912;9.138;2022-10-23T01:53:43;101508.69;;;17.64;57.17
37064;BME280;23211;53.912;9.138;2022-10-23T01:56:34;101513.28;;;17.64;57.24
37064;BME280;23211;53.912;9.138;2022-10-23T01:59:26;101514.09;;;17.64;56.94
37064;BME280;23211;53.912;9.138;2022-10-23T02:02:15;101515.47;;;17.67;56.82
37064;BME280;23211;53.912;9.138;2022-10-23T02:05:16;101504.06;;;17.65;56.79
37064;BME280;23211;53.912;9.138;2022-10-23T02:08:04;101510.31;;;17.65;56.63
37064;BME280;23211;53.912;9.138;2022-10-23T02:10:59;101495.13;;;17.64;56.52
37064;BME280;23211;53.912;9.138;2022-10-23T02:17:12;101496.22;;;17.63;56.25
37064;BME280;23211;53.912;9.138;2022-10-23T02:26:33;101504.44;;;17.53;56.32
37064;BME280;23211;53.912;9.138;2022-10-23T02:29:51;101503.91;;;17.51;56.40
37064;BME280;23211;53.912;9.138;2022-10-23T02:32:42;101509.00;;;17.58;56.48
37064;BME280;23211;53.912;9.138;2022-10-23T02:35:31;101506.13;;;17.44;56.64
37064;BME280;23211;53.912;9.138;2022-10-23T02:38:32;101506.31;;;17.53;56.33
37064;BME280;23211;53.912;9.138;2022-10-23T02:41:42;101508.25;;;17.47;56.68
37064;BME280;23211;53.912;9.138;2022-10-23T02:47:29;101512.59;;;17.48;56.58
37064;BME280;23211;53.912;9.138;2022-10-23T02:53:36;101519.91;;;17.48;56.41
37064;BME280;23211;53.912;9.138;2022-10-23T02:56:32;101524.75;;;17.51;56.39
37064;BME280;23211;53.912;9.138;2022-10-23T02:59:58;101516.91;;;17.49;56.40
37064;BME280;23211;53.912;9.138;2022-10-23T03:02:42;101510.44;;;17.45;56.47
37064;BME280;23211;53.912;9.138;2022-10-23T03:05:34;101504.22;;;17.45;56.52
37064;BME280;23211;53.912;9.138;2022-10-23T03:08:21;101505.03;;;17.45;56.62
37064;BME280;23211;53.912;9.138;2022-10-23T03:11:07;101497.19;;;17.44;56.48
37064;BME280;23211;53.912;9.138;2022-10-23T03:13:52;101502.59;;;17.44;56.58
37064;BME280;23211;53.912;9.138;2022-10-23T03:16:38;101509.63;;;17.45;56.60
37064;BME280;23211;53.912;9.138;2022-10-23T03:19:24;101495.28;;;17.44;56.66
37064;BME280;23211;53.912;9.138;2022-10-23T03:22:10;101493.66;;;17.43;56.67
37064;BME280;23211;53.912;9.138;2022-10-23T03:24:56;101506.38;;;17.43;56.77
37064;BME280;23211;53.912;9.138;2022-10-23T03:27:42;101502.59;;;17.44;56.66
37064;BME280;23211;53.912;9.138;2022-10-23T03:30:30;101505.31;;;17.44;56.51
37064;BME280;23211;53.912;9.138;2022-10-23T03:33:17;101503.41;;;17.44;56.34
37064;BME280;23211;53.912;9.138;2022-10-23T03:36:03;101503.69;;;17.43;56.33
37064;BME280;23211;53.912;9.138;2022-10-23T03:38:51;101500.97;;;17.43;56.37
37064;BME280;23211;53.912;9.138;2022-10-23T03:41:37;101493.94;;;17.42;56.09
37064;BME280;23211;53.912;9.138;2022-10-23T03:44:23;101493.13;;;17.41;56.03
37064;BME280;23211;53.912;9.138;2022-10-23T03:47:09;101485.56;;;17.38;55.94
37064;BME280;23211;53.912;9.138;2022-10-23T03:49:56;101480.72;;;17.35;55.78
37064;BME280;23211;53.912;9.138;2022-10-23T03:52:42;101492.09;;;17.32;55.82
37064;BME280;23211;53.912;9.138;2022-10-23T03:55:31;101481.81;;;17.29;55.91
37064;BME280;23211;53.912;9.138;2022-10-23T03:58:16;101484.53;;;17.29;55.69
37064;BME280;23211;53.912;9.138;2022-10-23T04:01:02;101490.50;;;17.26;55.83
37064;BME280;23211;53.912;9.138;2022-10-23T04:03:48;101479.97;;;17.24;55.98
37064;BME280;23211;53.912;9.138;2022-10-23T04:06:35;101477.81;;;17.21;56.11
37064;BME280;23211;53.912;9.138;2022-10-23T04:09:20;101478.38;;;17.18;56.01
37064;BME280;23211;53.912;9.138;2022-10-23T04:12:06;101484.59;;;17.19;56.27
37064;BME280;23211;53.912;9.138;2022-10-23T04:14:52;101490.28;;;17.17;56.31
37064;BME280;23211;53.912;9.138;2022-10-23T04:17:38;101484.06;;;17.17;56.24
37064;BME280;23211;53.912;9.138;2022-10-23T04:20:24;101490.56;;;17.16;56.30
37064;BME280;23211;53.912;9.138;2022-10-23T04:23:09;101491.38;;;17.16;56.40
37064;BME280;23211;53.912;9.138;2022-10-23T04:25:56;101476.22;;;17.15;56.28
37064;BME280;23211;53.912;9.138;2022-10-23T04:28:43;101471.63;;;17.16;56.37
37064;BME280;23211;53.912;9.138;2022-10-23T04:31:29;101468.91;;;17.16;56.30
37064;BME280;23211;53.912;9.138;2022-10-23T04:34:15;101464.31;;;17.16;56.23
37064;BME280;23211;53.912;9.138;2022-10-23T04:37:01;101474.31;;;17.16;56.38
37064;BME280;23211;53.912;9.138;2022-10-23T04:39:47;101484.63;;;17.14;56.31
37064;BME280;23211;53.912;9.138;2022-10-23T04:42:33;101483.00;;;17.13;56.52
37064;BME280;23211;53.912;9.138;2022-10-23T04:45:20;101477.34;;;17.09;56.51
37064;BME280;23211;53.912;9.138;2022-10-23T04:48:06;101469.78;;;17.06;56.83
37064;BME280;23211;53.912;9.138;2022-10-23T04:51:18;101470.88;;;17.05;57.04
37064;BME280;23211;53.912;9.138;2022-10-23T04:54:15;101469.78;;;17.06;57.10
37064;BME280;23211;53.912;9.138;2022-10-23T04:57:24;101476.81;;;17.07;56.97
37064;BME280;23211;53.912;9.138;2022-10-23T05:00:18;101477.34;;;17.09;56.98
37064;BME280;23211;53.912;9.138;2022-10-23T05:03:10;101483.56;;;17.10;56.84
37064;BME280;23211;53.912;9.138;2022-10-23T05:05:59;101477.34;;;17.09;56.88
37064;BME280;23211;53.912;9.138;2022-10-23T05:09:02;101469.50;;;17.07;56.97
37064;BME280;23211;53.912;9.138;2022-10-23T05:11:56;101464.34;;;17.06;57.05
37064;BME280;23211;53.912;9.138;2022-10-23T05:14:43;101467.59;;;17.08;57.20
37064;BME280;23211;53.912;9.138;2022-10-23T05:17:34;101463.28;;;17.07;57.09
37064;BME280;23211;53.912;9.138;2022-10-23T05:20:24;101467.59;;;17.08;57.06
37064;BME280;23211;53.912;9.138;2022-10-23T05:23:12;101457.03;;;17.06;56.95
37064;BME280;23211;53.912;9.138;2022-10-23T05:26:10;101458.13;;;17.05;57.11
37064;BME280;23211;53.912;9.138;2022-10-23T05:28:57;101457.88;;;17.02;57.16
37064;BME280;23211;53.912;9.138;2022-10-23T05:31:43;101455.75;;;16.99;57.28
37064;BME280;23211;53.912;9.138;2022-10-23T05:34:32;101448.69;;;16.98;57.22
37064;BME280;23211;53.912;9.138;2022-10-23T05:37:20;101447.63;;;16.99;57.41
37064;BME280;23211;53.912;9.138;2022-10-23T05:40:07;101444.91;;;16.99;57.43
37064;BME280;23211;53.912;9.138;2022-10-23T05:42:55;101440.59;;;16.98;57.32
37064;BME280;23211;53.912;9.138;2022-10-23T05:45:51;101442.75;;;16.96;57.41
37064;BME280;23211;53.912;9.138;2022-10-23T05:48:56;101443.31;;;16.93;57.37
37064;BME280;23211;53.912;9.138;2022-10-23T05:51:56;101442.78;;;16.91;57.48
37064;BME280;23211;53.912;9.138;2022-10-23T05:55:05;101447.91;;;16.92;57.66
37064;BME280;23211;53.912;9.138;2022-10-23T05:58:09;101451.72;;;16.91;57.62
37064;BME280;23211;53.912;9.138;2022-10-23T06:01:16;101454.94;;;16.93;57.75
37064;BME280;23211;53.912;9.138;2022-10-23T06:04:24;101457.09;;;16.96;57.65
37064;BME280;23211;53.912;9.138;2022-10-23T06:07:33;101446.28;;;16.96;57.72
37064;BME280;23211;53.912;9.138;2022-10-23T06:10:20;101451.69;;;16.96;57.78
37064;BME280;23211;53.912;9.138;2022-10-23T06:13:11;101443.84;;;16.95;57.79
37064;BME280;23211;53.912;9.138;2022-10-23T06:15:57;101446.00;;;16.98;57.84
37064;BME280;23211;53.912;9.138;2022-10-23T06:18:45;101452.75;;;17.00;58.07
37064;BME280;23211;53.912;9.138;2022-10-23T06:21:36;101449.22;;;17.00;58.13
37064;BME280;23211;53.912;9.138;2022-10-23T06:24:22;101446.25;;;17.01;58.14
37064;BME280;23211;53.912;9.138;2022-10-23T06:27:13;101462.22;;;17.03;58.24
37064;BME280;23211;53.912;9.138;2022-10-23T06:30:04;101461.94;;;17.04;58.32
37064;BME280;23211;53.912;9.138;2022-10-23T06:32:53;101450.00;;;17.05;58.16
37064;BME280;23211;53.912;9.138;2022-10-23T06:35:39;101448.13;;;17.06;58.28
37064;BME280;23211;53.912;9.138;2022-10-23T06:38:25;101443.22;;;17.08;58.34
37064;BME280;23211;53.912;9.138;2022-10-23T06:41:18;101448.38;;;17.10;58.33
37064;BME280;23211;53.912;9.138;2022-10-23T06:44:07;101450.78;;;17.11;58.33
37064;BME280;23211;53.912;9.138;2022-10-23T06:47:01;101450.78;;;17.11;58.36
37064;BME280;23211;53.912;9.138;2022-10-23T06:50:05;101449.97;;;17.11;58.24
37064;BME280;23211;53.912;9.138;2022-10-23T06:52:52;101439.72;;;17.07;58.17
37064;BME280;23211;53.912;9.138;2022-10-23T06:55:40;101460.31;;;17.03;58.38
37064;BME280;23211;53.912;9.138;2022-10-23T06:58:28;101458.69;;;17.02;58.30
37064;BME280;23211;53.912;9.138;2022-10-23T07:01:21;101462.50;;;17.01;58.42
37064;BME280;23211;53.912;9.138;2022-10-23T07:04:07;101464.91;;;17.03;58.32
37064;BME280;23211;53.912;9.138;2022-10-23T07:06:54;101464.63;;;17.04;58.41
37064;BME280;23211;53.912;9.138;2022-10-23T07:09:45;101464.34;;;17.06;58.18
37064;BME280;23211;53.912;9.138;2022-10-23T07:12:43;101457.84;;;17.07;58.34
37064;BME280;23211;53.912;9.138;2022-10-23T07:16:07;101454.63;;;17.05;58.38
37064;BME280;23211;53.912;9.138;2022-10-23T07:18:56;101449.72;;;17.07;58.42
37064;BME280;23211;53.912;9.138;2022-10-23T07:21:45;101456.78;;;17.08;58.55
37064;BME280;23211;53.912;9.138;2022-10-23T07:24:43;101453.25;;;17.07;58.87
37064;BME280;23211;53.912;9.138;2022-10-23T07:27:55;101452.16;;;17.08;59.02
37064;BME280;23211;53.912;9.138;2022-10-23T07:30:43;101457.03;;;17.12;59.12
37064;BME280;23211;53.912;9.138;2022-10-23T07:33:31;101464.59;;;17.15;59.22
37064;BME280;23211;53.912;9.138;2022-10-23T07:36:25;101460.50;;;17.17;59.42
37064;BME280;23211;53.912;9.138;2022-10-23T07:39:11;101451.28;;;17.18;59.36
37064;BME280;23211;53.912;9.138;2022-10-23T07:42:05;101451.53;;;17.22;59.43
37064;BME280;23211;53.912;9.138;2022-10-23T07:44:50;101442.03;;;17.24;59.54
37064;BME280;23211;53.912;9.138;2022-10-23T07:47:36;101445.81;;;17.28;59.40
37064;BME280;23211;53.912;9.138;2022-10-23T07:50:22;101448.47;;;17.33;59.43
37064;BME280;23211;53.912;9.138;2022-10-23T07:53:19;101447.41;;;17.34;59.33
37064;BME280;23211;53.912;9.138;2022-10-23T07:56:29;101436.56;;;17.34;59.33
37064;BME280;23211;53.912;9.138;2022-10-23T07:59:41;101444.13;;;17.37;59.03
37064;BME280;23211;53.912;9.138;2022-10-23T08:02:29;101438.97;;;17.36;58.95
37064;BME280;23211;53.912;9.138;2022-10-23T08:05:18;101441.16;;;17.34;58.88
37064;BME280;23211;53.912;9.138;2022-10-23T08:08:10;101443.88;;;17.34;58.91
37064;BME280;23211;53.912;9.138;2022-10-23T08:10:59;101440.88;;;17.35;59.04
37064;BME280;23211;53.912;9.138;2022-10-23T08:13:51;101430.06;;;17.35;58.92
37064;BME280;23211;53.912;9.138;2022-10-23T08:16:37;101437.38;;;17.35;58.99
37064;BME280;23211;53.912;9.138;2022-10-23T08:19:55;101434.41;;;17.31;59.32
37064;BME280;23211;53.912;9.138;2022-10-23T08:22:44;101434.66;;;17.35;59.25
37064;BME280;23211;53.912;9.138;2022-10-23T08:25:32;101430.06;;;17.35;59.24
37064;BME280;23211;53.912;9.138;2022-10-23T08:28:18;101426.81;;;17.33;59.20
37064;BME280;23211;53.912;9.138;2022-10-23T08:31:15;101430.09;;;17.30;59.26
37064;BME280;23211;53.912;9.138;2022-10-23T08:34:13;101428.19;;;17.31;59.39
37064;BME280;23211;53.912;9.138;2022-10-23T08:37:01;101431.16;;;17.34;59.45
37064;BME280;23211;53.912;9.138;2022-10-23T08:39:48;101421.66;;;17.37;59.64
37064;BME280;23211;53.912;9.138;2022-10-23T08:42:38;101431.63;;;17.42;59.57
37064;BME280;23211;53.912;9.138;2022-10-23T08:48:20;101419.94;;;17.46;59.98
37064;BME280;23211;53.912;9.138;2022-10-23T08:51:35;101419.91;;;17.51;59.99
37064;BME280;23211;53.912;9.138;2022-10-23T08:57:33;101420.63;;;17.62;60.40
37064;BME280;23211;53.912;9.138;2022-10-23T09:00:21;101415.72;;;17.69;60.48
37064;BME280;23211;53.912;9.138;2022-10-23T09:03:09;101414.88;;;17.74;60.31
37064;BME280;23211;53.912;9.138;2022-10-23T09:06:05;101418.91;;;17.76;60.84
37064;BME280;23211;53.912;9.138;2022-10-23T09:12:09;101409.31;;;17.89;60.64
37064;BME280;23211;53.912;9.138;2022-10-23T09:15:34;101411.16;;;17.93;60.94
37064;BME280;23211;53.912;9.138;2022-10-23T09:18:24;101411.34;;;18.02;60.90
37064;BME280;23211;53.912;9.138;2022-10-23T09:21:10;101417.22;;;18.09;60.81
37064;BME280;23211;53.912;9.138;2022-10-23T09:23:56;101413.66;;;18.14;60.71
37064;BME280;23211;53.912;9.138;2022-10-23T09:26:43;101409.28;;;18.18;60.86
37064;BME280;23211;53.912;9.138;2022-10-23T09:29:33;101415.16;;;18.25;60.77
37064;BME280;23211;53.912;9.138;2022-10-23T09:32:40;101420.25;;;18.31;60.96
37064;BME280;23211;53.912;9.138;2022-10-23T09:35:28;101414.63;;;18.47;60.89
37064;BME280;23211;53.912;9.138;2022-10-23T09:38:36;101409.38;;;18.55;60.74
37064;BME280;23211;53.912;9.138;2022-10-23T09:49:54;101422.44;;;18.96;60.40
37064;BME280;23211;53.912;9.138;2022-10-23T09:52:41;101413.34;;;19.06;60.38
37064;BME280;23211;53.912;9.138;2022-10-23T09:55:27;101426.25;;;19.14;60.35
37064;BME280;23211;53.912;9.138;2022-10-23T09:58:20;101421.03;;;19.17;59.90
37064;BME280;23211;53.912;9.138;2022-10-23T10:01:22;101413.69;;;19.18;60.14
37064;BME280;23211;53.912;9.138;2022-10-23T10:04:09;101404.38;;;19.24;59.83
37064;BME280;23211;53.912;9.138;2022-10-23T10:06:56;101404.88;;;19.26;59.67
37064;BME280;23211;53.912;9.138;2022-10-23T10:09:42;101400.56;;;19.25;59.73
37064;BME280;23211;53.912;9.138;2022-10-23T10:22:15;101382.19;;;19.17;59.85
37064;BME280;23211;53.912;9.138;2022-10-23T10:28:40;101367.13;;;19.24;59.95
37064;BME280;23211;53.912;9.138;2022-10-23T10:31:50;101367.56;;;19.31;59.87
37064;BME280;23211;53.912;9.138;2022-10-23T10:34:44;101361.97;;;19.42;59.91
37064;BME280;23211;53.912;9.138;2022-10-23T10:37:40;101366.16;;;19.53;59.85
37064;BME280;23211;53.912;9.138;2022-10-23T10:40:40;101355.19;;;19.58;59.74
37064;BME280;23211;53.912;9.138;2022-10-23T10:50:17;101335.38;;;19.71;59.77
37064;BME280;23211;53.912;9.138;2022-10-23T10:53:42;101341.53;;;19.77;59.59
37064;BME280;23211;53.912;9.138;2022-10-23T10:56:34;101322.91;;;19.84;59.77
37064;BME280;23211;53.912;9.138;2022-10-23T10:59:37;101325.00;;;19.87;59.79
37064;BME280;23211;53.912;9.138;2022-10-23T11:02:43;101327.34;;;19.93;60.00
37064;BME280;23211;53.912;9.138;2022-10-23T11:05:33;101327.84;;;20.09;59.73
37064;BME280;23211;53.912;9.138;2022-10-23T11:08:25;101315.94;;;20.19;59.65
37064;BME280;23211;53.912;9.138;2022-10-23T11:11:21;101309.97;;;20.31;59.37
37064;BME280;23211;53.912;9.138;2022-10-23T11:14:25;101311.69;;;20.40;59.27
37064;BME280;23211;53.912;9.138;2022-10-23T11:17:24;101310.66;;;20.50;58.93
37064;BME280;23211;53.912;9.138;2022-10-23T11:23:34;101309.34;;;20.61;58.58
37064;BME280;23211;53.912;9.138;2022-10-23T11:32:41;101283.91;;;20.66;58.16
37064;BME280;23211;53.912;9.138;2022-10-23T11:38:39;101275.44;;;20.67;57.93
37064;BME280;23211;53.912;9.138;2022-10-23T11:41:27;101260.38;;;20.70;57.93
37064;BME280;23211;53.912;9.138;2022-10-23T11:47:34;101251.72;;;20.68;58.07
37064;BME280;23211;53.912;9.138;2022-10-23T11:50:32;101235.38;;;20.68;58.09
37064;BME280;23211;53.912;9.138;2022-10-23T11:53:38;101227.22;;;20.68;58.36
37064;BME280;23211;53.912;9.138;2022-10-23T11:56:26;101224.06;;;20.74;58.29
37064;BME280;23211;53.912;9.138;2022-10-23T12:02:29;101212.38;;;20.74;58.58
37064;BME280;23211;53.912;9.138;2022-10-23T12:05:37;101210.44;;;20.74;58.55
37064;BME280;23211;53.912;9.138;2022-10-23T12:08:28;101208.94;;;20.82;58.47
37064;BME280;23211;53.912;9.138;2022-10-23T12:11:28;101197.41;;;20.85;58.62
37064;BME280;23211;53.912;9.138;2022-10-23T12:14:28;101187.06;;;20.96;58.68
37064;BME280;23211;53.912;9.138;2022-10-23T12:17:28;101179.56;;;21.01;58.59
37064;BME280;23211;53.912;9.138;2022-10-23T12:29:10;101170.75;;;21.35;58.18
37064;BME280;23211;53.912;9.138;2022-10-23T12:38:42;101150.44;;;21.50;57.70
37064;BME280;23211;53.912;9.138;2022-10-23T12:41:30;101146.44;;;21.56;57.58
37064;BME280;23211;53.912;9.138;2022-10-23T12:44:18;101133.28;;;21.58;57.32
37064;BME280;23211;53.912;9.138;2022-10-23T12:47:04;101132.47;;;21.58;57.37
37064;BME280;23211;53.912;9.138;2022-10-23T12:49:50;101127.84;;;21.58;57.31
37064;BME280;23211;53.912;9.138;2022-10-23T12:52:37;101121.56;;;21.58;57.28
37064;BME280;23211;53.912;9.138;2022-10-23T12:55:25;101108.75;;;21.58;57.16
37064;BME280;23211;53.912;9.138;2022-10-23T12:58:23;101107.78;;;21.54;57.28
37064;BME280;23211;53.912;9.138;2022-10-23T13:01:22;101100.72;;;21.53;57.50
37064;BME280;23211;53.912;9.138;2022-10-23T13:06:58;101070.09;;;21.56;57.42
37064;BME280;23211;53.912;9.138;2022-10-23T13:09:45;101058.53;;;21.59;57.26
37064;BME280;23211;53.912;9.138;2022-10-23T13:12:55;101050.84;;;21.61;57.35
37064;BME280;23211;53.912;9.138;2022-10-23T13:15:44;101047.47;;;21.64;57.13
37064;BME280;23211;53.912;9.138;2022-10-23T13:18:39;101038.81;;;21.62;57.12
37064;BME280;23211;53.912;9.138;2022-10-23T13:21:27;101040.56;;;21.67;57.13
37064;BME280;23211;53.912;9.138;2022-10-23T13:24:20;101044.91;;;21.68;57.06
37064;BME280;23211;53.912;9.138;2022-10-23T13:30:28;101053.09;;;21.68;56.98
37064;BME280;23211;53.912;9.138;2022-10-23T13:33:24;101041.88;;;21.69;57.09
37064;BME280;23211;53.912;9.138;2022-10-23T13:39:03;101033.84;;;21.73;56.75
37064;BME280;23211;53.912;9.138;2022-10-23T13:41:49;101023.25;;;21.71;56.86
37064;BME280;23211;53.912;9.138;2022-10-23T13:44:36;101018.59;;;21.72;57.10
37064;BME280;23211;53.912;9.138;2022-10-23T13:47:22;101015.88;;;21.72;56.57
37064;BME280;23211;53.912;9.138;2022-10-23T13:50:08;101000.31;;;21.72;56.72
37064;BME280;23211;53.912;9.138;2022-10-23T13:52:55;101001.44;;;21.71;56.62
37064;BME280;23211;53.912;9.138;2022-10-23T13:55:45;101004.66;;;21.73;56.84
37064;BME280;23211;53.912;9.138;2022-10-23T13:58:32;100980.09;;;21.73;56.33
37064;BME280;23211;53.912;9.138;2022-10-23T14:01:30;100988.28;;;21.73;56.62
37064;BME280;23211;53.912;9.138;2022-10-23T14:04:17;100988.44;;;21.77;56.65
37064;BME280;23211;53.912;9.138;2022-10-23T14:07:03;100993.88;;;21.77;56.66
37064;BME280;23211;53.912;9.138;2022-10-23T14:09:49;100980.25;;;21.77;56.42
37064;BME280;23211;53.912;9.138;2022-10-23T14:12:39;100976.25;;;21.74;56.37
37064;BME280;23211;53.912;9.138;2022-10-23T14:15:25;100991.00;;;21.73;56.75
37064;BME280;23211;53.912;9.138;2022-10-23T14:18:11;100992.94;;;21.73;56.17
37064;BME280;23211;53.912;9.138;2022-10-23T14:21:01;100981.06;;;21.69;56.55
37064;BME280;23211;53.912;9.138;2022-10-23T14:23:48;100972.09;;;21.68;56.64
37064;BME280;23211;53.912;9.138;2022-10-23T14:26:34;100971.28;;;21.68;56.62
37064;BME280;23211;53.912;9.138;2022-10-23T14:29:20;100962.31;;;21.67;56.67
37064;BME280;23211;53.912;9.138;2022-10-23T14:32:06;100974.81;;;21.68;56.54
37064;BME280;23211;53.912;9.138;2022-10-23T14:34:53;100962.31;;;21.67;56.47
37064;BME280;23211;53.912;9.138;2022-10-23T14:37:39;100954.44;;;21.66;56.57
37064;BME280;23211;53.912;9.138;2022-10-23T14:40:24;100950.44;;;21.63;56.60
37064;BME280;23211;53.912;9.138;2022-10-23T14:43:10;100947.72;;;21.63;56.51
37064;BME280;23211;53.912;9.138;2022-10-23T14:45:56;100948.50;;;21.64;56.68
37064;BME280;23211;53.912;9.138;2022-10-23T14:48:42;100950.91;;;21.65;56.59
37064;BME280;23211;53.912;9.138;2022-10-23T14:51:29;100950.59;;;21.67;56.55
37064;BME280;23211;53.912;9.138;2022-10-23T14:54:15;100954.91;;;21.68;56.30
37064;BME280;23211;53.912;9.138;2022-10-23T14:57:02;100956.53;;;21.69;56.35
37064;BME280;23211;53.912;9.138;2022-10-23T14:59:48;100941.75;;;21.70;56.35
37064;BME280;23211;53.912;9.138;2022-10-23T15:02:34;100923.31;;;21.67;56.06
37064;BME280;23211;53.912;9.138;2022-10-23T15:05:20;100912.72;;;21.65;56.15
37064;BME280;23211;53.912;9.138;2022-10-23T15:08:05;100909.06;;;21.61;56.21
37064;BME280;23211;53.912;9.138;2022-10-23T15:10:51;100904.25;;;21.58;56.20
37064;BME280;23211;53.912;9.138;2022-10-23T15:13:37;100902.97;;;21.55;56.47
37064;BME280;23211;53.912;9.138;2022-10-23T15:16:23;100907.16;;;21.53;56.12
37064;BME280;23211;53.912;9.138;2022-10-23T15:19:10;100909.06;;;21.52;56.04
37064;BME280;23211;53.912;9.138;2022-10-23T15:21:56;100909.88;;;21.53;55.83
37064;BME280;23211;53.912;9.138;2022-10-23T15:27:32;100903.47;;;21.49;56.00
37064;BME280;23211;53.912;9.138;2022-10-23T15:30:18;100897.06;;;21.45;55.97
37064;BME280;23211;53.912;9.138;2022-10-23T15:33:03;100890.97;;;21.39;55.81
37064;BME280;23211;53.912;9.138;2022-10-23T15:35:50;100862.44;;;21.37;55.99
37064;BME280;23211;53.912;9.138;2022-10-23T15:38:36;100852.50;;;21.32;56.11
37064;BME280;23211;53.912;9.138;2022-10-23T15:41:32;100855.22;;;21.23;56.12
37064;BME280;23211;53.912;9.138;2022-10-23T15:44:20;100859.88;;;21.23;56.22
37064;BME280;23211;53.912;9.138;2022-10-23T15:47:06;100859.38;;;21.21;56.22
37064;BME280;23211;53.912;9.138;2022-10-23T15:49:51;100851.50;;;21.19;56.22
37064;BME280;23211;53.912;9.138;2022-10-23T15:52:37;100847.84;;;21.15;56.20
37064;BME280;23211;53.912;9.138;2022-10-23T15:55:23;100835.34;;;21.14;56.30
37064;BME280;23211;53.912;9.138;2022-10-23T15:58:09;100839.19;;;21.13;56.39
37064;BME280;23211;53.912;9.138;2022-10-23T16:00:55;100840.31;;;21.12;56.26
37064;BME280;23211;53.912;9.138;2022-10-23T16:03:41;100832.78;;;21.09;56.39
37064;BME280;23211;53.912;9.138;2022-10-23T16:06:27;100827.66;;;21.08;56.30
37064;BME280;23211;53.912;9.138;2022-10-23T16:09:14;100823.66;;;21.05;56.59
37064;BME280;23211;53.912;9.138;2022-10-23T16:11:59;100815.00;;;21.03;56.42
37064;BME280;23211;53.912;9.138;2022-10-23T16:14:45;100789.53;;;20.99;56.42
37064;BME280;23211;53.912;9.138;2022-10-23T16:17:31;100799.13;;;20.97;56.57
37064;BME280;23211;53.912;9.138;2022-10-23T16:20:17;100830.53;;;20.94;56.56
37064;BME280;23211;53.912;9.138;2022-10-23T16:23:04;100808.75;;;20.94;56.63
37064;BME280;23211;53.912;9.138;2022-10-23T16:25:50;100809.56;;;20.95;56.55
37064;BME280;23211;53.912;9.138;2022-10-23T16:28:36;100814.53;;;20.92;56.42
37064;BME280;23211;53.912;9.138;2022-10-23T16:31:23;100803.47;;;20.89;56.59
37064;BME280;23211;53.912;9.138;2022-10-23T16:34:09;100800.09;;;20.83;56.69
37064;BME280;23211;53.912;9.138;2022-10-23T16:36:55;100794.19;;;20.81;56.70